SEPTEMBER 21, 2017

 

METAR SMJP 211200Z 12008KT 9999 FEW008 28/24 Q1013 NOSIG=

METAR SMZO 211200Z 14004KT 9999 FEW010 28/24 Q1013 NOSIG=

METAR SMNI 211200Z 10008KT 9999 FEW015 29/23 Q1013=